sensor_id;sensor_type;location;lat;lon;timestamp;P1;durP1;ratioP1;P2;durP2;ratioP2
62861;SDS011;48953;53.110;5.592;2023-07-28T00:02:14;21.13;;;6.85;;
62861;SDS011;48953;53.110;5.592;2023-07-28T00:04:40;19.08;;;7.38;;
62861;SDS011;48953;53.110;5.592;2023-07-28T00:07:06;21.00;;;7.28;;
62861;SDS011;48953;53.110;5.592;2023-07-28T00:09:32;17.98;;;6.53;;
62861;SDS011;48953;53.110;5.592;2023-07-28T00:11:59;24.73;;;7.30;;
62861;SDS011;48953;53.110;5.592;2023-07-28T00:14:25;24.35;;;7.68;;
62861;SDS011;48953;53.110;5.592;2023-07-28T00:16:52;25.92;;;8.15;;
62861;SDS011;48953;53.110;5.592;2023-07-28T00:19:18;21.30;;;7.85;;
62861;SDS011;48953;53.110;5.592;2023-07-28T00:21:52;21.00;;;7.32;;
62861;SDS011;48953;53.110;5.592;2023-07-28T00:24:18;27.38;;;8.02;;
62861;SDS011;48953;53.110;5.592;2023-07-28T00:26:44;23.67;;;7.63;;
62861;SDS011;48953;53.110;5.592;2023-07-28T00:29:10;24.17;;;7.30;;
62861;SDS011;48953;53.110;5.592;2023-07-28T00:31:36;23.25;;;7.40;;
62861;SDS011;48953;53.110;5.592;2023-07-28T00:34:02;19.40;;;7.07;;
62861;SDS011;48953;53.110;5.592;2023-07-28T00:36:29;25.05;;;7.03;;
62861;SDS011;48953;53.110;5.592;2023-07-28T00:38:55;29.98;;;6.78;;
62861;SDS011;48953;53.110;5.592;2023-07-28T00:41:21;22.58;;;6.18;;
62861;SDS011;48953;53.110;5.592;2023-07-28T00:43:47;20.98;;;5.97;;
62861;SDS011;48953;53.110;5.592;2023-07-28T00:46:13;21.80;;;6.00;;
62861;SDS011;48953;53.110;5.592;2023-07-28T00:48:40;22.58;;;5.47;;
62861;SDS011;48953;53.110;5.592;2023-07-28T00:51:06;24.13;;;5.53;;
62861;SDS011;48953;53.110;5.592;2023-07-28T00:53:33;17.95;;;5.35;;
62861;SDS011;48953;53.110;5.592;2023-07-28T00:55:59;15.60;;;4.90;;
62861;SDS011;48953;53.110;5.592;2023-07-28T00:58:25;18.83;;;5.18;;
62861;SDS011;48953;53.110;5.592;2023-07-28T01:00:51;17.70;;;4.70;;
62861;SDS011;48953;53.110;5.592;2023-07-28T01:03:24;19.40;;;4.28;;
62861;SDS011;48953;53.110;5.592;2023-07-28T01:06:02;18.48;;;4.28;;
62861;SDS011;48953;53.110;5.592;2023-07-28T01:10:57;20.52;;;4.70;;
62861;SDS011;48953;53.110;5.592;2023-07-28T01:13:23;20.05;;;4.63;;
62861;SDS011;48953;53.110;5.592;2023-07-28T01:15:49;19.70;;;3.97;;
62861;SDS011;48953;53.110;5.592;2023-07-28T01:18:15;19.42;;;4.30;;
62861;SDS011;48953;53.110;5.592;2023-07-28T01:20:41;19.13;;;3.80;;
62861;SDS011;48953;53.110;5.592;2023-07-28T01:25:55;23.33;;;4.43;;
62861;SDS011;48953;53.110;5.592;2023-07-28T01:28:25;21.65;;;4.47;;
62861;SDS011;48953;53.110;5.592;2023-07-28T01:30:51;21.40;;;4.25;;
62861;SDS011;48953;53.110;5.592;2023-07-28T01:33:20;20.83;;;4.57;;
62861;SDS011;48953;53.110;5.592;2023-07-28T01:35:46;22.00;;;4.05;;
62861;SDS011;48953;53.110;5.592;2023-07-28T01:38:12;20.42;;;4.47;;
62861;SDS011;48953;53.110;5.592;2023-07-28T01:40:38;21.80;;;4.43;;
62861;SDS011;48953;53.110;5.592;2023-07-28T01:43:04;22.00;;;4.95;;
62861;SDS011;48953;53.110;5.592;2023-07-28T01:45:30;20.05;;;4.45;;
62861;SDS011;48953;53.110;5.592;2023-07-28T01:47:56;14.73;;;4.00;;
62861;SDS011;48953;53.110;5.592;2023-07-28T01:50:22;24.20;;;4.50;;
62861;SDS011;48953;53.110;5.592;2023-07-28T01:52:49;24.50;;;4.78;;
62861;SDS011;48953;53.110;5.592;2023-07-28T01:55:15;22.00;;;4.60;;
62861;SDS011;48953;53.110;5.592;2023-07-28T01:57:49;22.45;;;4.32;;
62861;SDS011;48953;53.110;5.592;2023-07-28T02:00:15;21.98;;;4.10;;
62861;SDS011;48953;53.110;5.592;2023-07-28T02:02:41;21.20;;;4.30;;
62861;SDS011;48953;53.110;5.592;2023-07-28T02:05:07;19.42;;;4.10;;
62861;SDS011;48953;53.110;5.592;2023-07-28T02:07:33;18.48;;;4.45;;
62861;SDS011;48953;53.110;5.592;2023-07-28T02:09:59;17.60;;;3.85;;
62861;SDS011;48953;53.110;5.592;2023-07-28T02:12:25;15.68;;;4.05;;
62861;SDS011;48953;53.110;5.592;2023-07-28T02:14:51;22.00;;;4.10;;
62861;SDS011;48953;53.110;5.592;2023-07-28T02:17:17;20.50;;;4.10;;
62861;SDS011;48953;53.110;5.592;2023-07-28T02:19:43;16.63;;;3.72;;
62861;SDS011;48953;53.110;5.592;2023-07-28T02:22:09;11.50;;;3.65;;
62861;SDS011;48953;53.110;5.592;2023-07-28T02:24:36;14.63;;;3.75;;
62861;SDS011;48953;53.110;5.592;2023-07-28T02:27:02;15.43;;;3.90;;
62861;SDS011;48953;53.110;5.592;2023-07-28T02:29:28;21.48;;;5.10;;
62861;SDS011;48953;53.110;5.592;2023-07-28T02:31:54;20.17;;;4.55;;
62861;SDS011;48953;53.110;5.592;2023-07-28T02:34:20;18.10;;;4.00;;
62861;SDS011;48953;53.110;5.592;2023-07-28T02:36:46;11.85;;;3.70;;
62861;SDS011;48953;53.110;5.592;2023-07-28T02:39:12;17.10;;;3.70;;
62861;SDS011;48953;53.110;5.592;2023-07-28T02:41:38;14.85;;;3.90;;
62861;SDS011;48953;53.110;5.592;2023-07-28T02:44:04;13.38;;;4.05;;
62861;SDS011;48953;53.110;5.592;2023-07-28T02:46:30;15.05;;;3.20;;
62861;SDS011;48953;53.110;5.592;2023-07-28T02:48:56;12.57;;;3.25;;
62861;SDS011;48953;53.110;5.592;2023-07-28T02:51:22;18.00;;;3.83;;
62861;SDS011;48953;53.110;5.592;2023-07-28T02:53:48;15.50;;;4.35;;
62861;SDS011;48953;53.110;5.592;2023-07-28T02:56:14;15.43;;;3.40;;
62861;SDS011;48953;53.110;5.592;2023-07-28T02:58:40;16.45;;;4.28;;
62861;SDS011;48953;53.110;5.592;2023-07-28T03:01:06;12.13;;;3.83;;
62861;SDS011;48953;53.110;5.592;2023-07-28T03:03:32;17.88;;;4.40;;
62861;SDS011;48953;53.110;5.592;2023-07-28T03:05:58;14.32;;;4.13;;
62861;SDS011;48953;53.110;5.592;2023-07-28T03:08:24;17.10;;;4.55;;
62861;SDS011;48953;53.110;5.592;2023-07-28T03:10:55;8.13;;;3.60;;
62861;SDS011;48953;53.110;5.592;2023-07-28T03:13:22;10.05;;;3.50;;
62861;SDS011;48953;53.110;5.592;2023-07-28T03:15:48;11.25;;;3.88;;
62861;SDS011;48953;53.110;5.592;2023-07-28T03:18:14;12.00;;;3.80;;
62861;SDS011;48953;53.110;5.592;2023-07-28T03:20:41;12.15;;;3.95;;
62861;SDS011;48953;53.110;5.592;2023-07-28T03:23:07;7.80;;;4.00;;
62861;SDS011;48953;53.110;5.592;2023-07-28T03:25:33;9.15;;;3.05;;
62861;SDS011;48953;53.110;5.592;2023-07-28T03:27:59;7.70;;;3.30;;
62861;SDS011;48953;53.110;5.592;2023-07-28T03:30:25;8.80;;;3.20;;
62861;SDS011;48953;53.110;5.592;2023-07-28T03:32:51;9.43;;;3.17;;
62861;SDS011;48953;53.110;5.592;2023-07-28T03:35:17;7.90;;;2.83;;
62861;SDS011;48953;53.110;5.592;2023-07-28T03:37:43;8.43;;;3.25;;
62861;SDS011;48953;53.110;5.592;2023-07-28T03:40:09;11.70;;;3.40;;
62861;SDS011;48953;53.110;5.592;2023-07-28T03:42:35;12.18;;;2.95;;
62861;SDS011;48953;53.110;5.592;2023-07-28T03:45:01;8.25;;;3.20;;
62861;SDS011;48953;53.110;5.592;2023-07-28T03:47:27;10.90;;;3.28;;
62861;SDS011;48953;53.110;5.592;2023-07-28T03:49:53;13.02;;;3.45;;
62861;SDS011;48953;53.110;5.592;2023-07-28T03:52:19;9.90;;;3.33;;
62861;SDS011;48953;53.110;5.592;2023-07-28T03:54:45;9.35;;;3.83;;
62861;SDS011;48953;53.110;5.592;2023-07-28T03:57:11;8.55;;;3.35;;
62861;SDS011;48953;53.110;5.592;2023-07-28T03:59:37;8.57;;;3.13;;
62861;SDS011;48953;53.110;5.592;2023-07-28T04:02:03;11.55;;;3.70;;
62861;SDS011;48953;53.110;5.592;2023-07-28T04:04:29;9.48;;;3.83;;
62861;SDS011;48953;53.110;5.592;2023-07-28T04:06:55;10.80;;;3.50;;
62861;SDS011;48953;53.110;5.592;2023-07-28T04:09:21;9.43;;;4.20;;
62861;SDS011;48953;53.110;5.592;2023-07-28T04:11:47;12.00;;;4.80;;
62861;SDS011;48953;53.110;5.592;2023-07-28T04:14:13;9.48;;;4.07;;
62861;SDS011;48953;53.110;5.592;2023-07-28T04:16:39;11.35;;;5.00;;
62861;SDS011;48953;53.110;5.592;2023-07-28T04:19:06;7.57;;;4.80;;
62861;SDS011;48953;53.110;5.592;2023-07-28T04:21:32;7.00;;;5.30;;
62861;SDS011;48953;53.110;5.592;2023-07-28T04:23:58;10.77;;;5.70;;
62861;SDS011;48953;53.110;5.592;2023-07-28T04:26:24;10.35;;;5.13;;
62861;SDS011;48953;53.110;5.592;2023-07-28T04:28:50;9.40;;;5.75;;
62861;SDS011;48953;53.110;5.592;2023-07-28T04:31:16;10.07;;;6.72;;
62861;SDS011;48953;53.110;5.592;2023-07-28T04:33:42;12.27;;;6.32;;
62861;SDS011;48953;53.110;5.592;2023-07-28T04:36:09;11.07;;;6.75;;
62861;SDS011;48953;53.110;5.592;2023-07-28T04:38:35;16.70;;;7.75;;
62861;SDS011;48953;53.110;5.592;2023-07-28T04:41:01;12.60;;;7.63;;
62861;SDS011;48953;53.110;5.592;2023-07-28T04:43:27;10.18;;;7.40;;
62861;SDS011;48953;53.110;5.592;2023-07-28T04:45:54;12.13;;;7.57;;
62861;SDS011;48953;53.110;5.592;2023-07-28T04:48:20;15.45;;;8.07;;
62861;SDS011;48953;53.110;5.592;2023-07-28T04:50:46;10.32;;;7.32;;
62861;SDS011;48953;53.110;5.592;2023-07-28T04:53:12;8.30;;;6.55;;
62861;SDS011;48953;53.110;5.592;2023-07-28T04:55:38;11.70;;;6.55;;
62861;SDS011;48953;53.110;5.592;2023-07-28T04:58:04;10.77;;;6.95;;
62861;SDS011;48953;53.110;5.592;2023-07-28T05:00:30;12.38;;;7.18;;
62861;SDS011;48953;53.110;5.592;2023-07-28T05:02:56;12.98;;;7.75;;
62861;SDS011;48953;53.110;5.592;2023-07-28T05:05:22;11.23;;;7.82;;
62861;SDS011;48953;53.110;5.592;2023-07-28T05:07:48;12.13;;;7.75;;
62861;SDS011;48953;53.110;5.592;2023-07-28T05:10:14;14.98;;;8.73;;
62861;SDS011;48953;53.110;5.592;2023-07-28T05:12:40;11.85;;;8.60;;
62861;SDS011;48953;53.110;5.592;2023-07-28T05:15:06;13.77;;;8.43;;
62861;SDS011;48953;53.110;5.592;2023-07-28T05:17:35;16.70;;;9.33;;
62861;SDS011;48953;53.110;5.592;2023-07-28T05:20:01;15.50;;;8.70;;
62861;SDS011;48953;53.110;5.592;2023-07-28T05:22:27;12.00;;;8.70;;
62861;SDS011;48953;53.110;5.592;2023-07-28T05:24:53;15.20;;;9.23;;
62861;SDS011;48953;53.110;5.592;2023-07-28T05:27:19;12.70;;;8.93;;
62861;SDS011;48953;53.110;5.592;2023-07-28T05:29:45;13.20;;;9.18;;
62861;SDS011;48953;53.110;5.592;2023-07-28T05:32:12;13.77;;;9.18;;
62861;SDS011;48953;53.110;5.592;2023-07-28T05:34:41;10.70;;;8.35;;
62861;SDS011;48953;53.110;5.592;2023-07-28T05:37:07;12.57;;;8.77;;
62861;SDS011;48953;53.110;5.592;2023-07-28T05:39:33;14.90;;;8.77;;
62861;SDS011;48953;53.110;5.592;2023-07-28T05:41:59;14.10;;;8.45;;
62861;SDS011;48953;53.110;5.592;2023-07-28T05:44:25;10.82;;;8.85;;
62861;SDS011;48953;53.110;5.592;2023-07-28T05:46:51;11.50;;;9.23;;
62861;SDS011;48953;53.110;5.592;2023-07-28T05:49:17;15.07;;;10.23;;
62861;SDS011;48953;53.110;5.592;2023-07-28T05:51:43;12.90;;;9.95;;
62861;SDS011;48953;53.110;5.592;2023-07-28T05:54:09;12.85;;;9.05;;
62861;SDS011;48953;53.110;5.592;2023-07-28T05:56:37;12.45;;;8.95;;
62861;SDS011;48953;53.110;5.592;2023-07-28T05:59:03;15.02;;;11.02;;
62861;SDS011;48953;53.110;5.592;2023-07-28T06:01:29;17.08;;;11.60;;
62861;SDS011;48953;53.110;5.592;2023-07-28T06:03:56;16.33;;;11.10;;
62861;SDS011;48953;53.110;5.592;2023-07-28T06:06:24;14.85;;;10.27;;
62861;SDS011;48953;53.110;5.592;2023-07-28T06:08:51;12.20;;;10.10;;
62861;SDS011;48953;53.110;5.592;2023-07-28T06:11:17;13.82;;;10.73;;
62861;SDS011;48953;53.110;5.592;2023-07-28T06:13:43;13.77;;;10.50;;
62861;SDS011;48953;53.110;5.592;2023-07-28T06:16:11;14.30;;;10.48;;
62861;SDS011;48953;53.110;5.592;2023-07-28T06:18:37;9.95;;;7.72;;
62861;SDS011;48953;53.110;5.592;2023-07-28T06:21:03;10.82;;;8.20;;
62861;SDS011;48953;53.110;5.592;2023-07-28T06:23:29;12.20;;;8.77;;
62861;SDS011;48953;53.110;5.592;2023-07-28T06:25:55;13.23;;;10.05;;
62861;SDS011;48953;53.110;5.592;2023-07-28T06:28:21;10.43;;;8.82;;
62861;SDS011;48953;53.110;5.592;2023-07-28T06:30:47;10.20;;;8.63;;
62861;SDS011;48953;53.110;5.592;2023-07-28T06:33:13;10.60;;;7.78;;
62861;SDS011;48953;53.110;5.592;2023-07-28T06:35:39;8.98;;;7.57;;
62861;SDS011;48953;53.110;5.592;2023-07-28T06:38:05;9.15;;;7.13;;
62861;SDS011;48953;53.110;5.592;2023-07-28T06:40:31;11.50;;;8.52;;
62861;SDS011;48953;53.110;5.592;2023-07-28T06:42:57;11.60;;;8.60;;
62861;SDS011;48953;53.110;5.592;2023-07-28T06:45:23;11.20;;;9.23;;
62861;SDS011;48953;53.110;5.592;2023-07-28T06:47:49;10.98;;;8.18;;
62861;SDS011;48953;53.110;5.592;2023-07-28T06:50:16;9.23;;;8.30;;
62861;SDS011;48953;53.110;5.592;2023-07-28T06:52:42;11.20;;;8.85;;
62861;SDS011;48953;53.110;5.592;2023-07-28T06:55:08;12.05;;;8.52;;
62861;SDS011;48953;53.110;5.592;2023-07-28T06:57:34;12.05;;;9.98;;
62861;SDS011;48953;53.110;5.592;2023-07-28T07:00:00;10.85;;;8.35;;
62861;SDS011;48953;53.110;5.592;2023-07-28T07:02:26;12.63;;;9.15;;
62861;SDS011;48953;53.110;5.592;2023-07-28T07:04:52;13.85;;;9.07;;
62861;SDS011;48953;53.110;5.592;2023-07-28T07:07:18;15.60;;;9.52;;
62861;SDS011;48953;53.110;5.592;2023-07-28T07:09:44;14.85;;;8.60;;
62861;SDS011;48953;53.110;5.592;2023-07-28T07:12:10;11.70;;;9.23;;
62861;SDS011;48953;53.110;5.592;2023-07-28T07:14:37;14.32;;;9.30;;
62861;SDS011;48953;53.110;5.592;2023-07-28T07:17:03;11.43;;;9.30;;
62861;SDS011;48953;53.110;5.592;2023-07-28T07:19:29;11.27;;;8.73;;
62861;SDS011;48953;53.110;5.592;2023-07-28T07:21:55;12.95;;;9.10;;
62861;SDS011;48953;53.110;5.592;2023-07-28T07:24:22;9.77;;;7.82;;
62861;SDS011;48953;53.110;5.592;2023-07-28T07:26:48;11.85;;;8.98;;
62861;SDS011;48953;53.110;5.592;2023-07-28T07:29:14;10.70;;;9.00;;
62861;SDS011;48953;53.110;5.592;2023-07-28T07:31:40;11.30;;;8.88;;
62861;SDS011;48953;53.110;5.592;2023-07-28T07:34:06;8.55;;;7.55;;
62861;SDS011;48953;53.110;5.592;2023-07-28T07:36:32;9.88;;;8.30;;
62861;SDS011;48953;53.110;5.592;2023-07-28T07:38:58;8.10;;;7.25;;
62861;SDS011;48953;53.110;5.592;2023-07-28T07:41:24;9.45;;;6.97;;
62861;SDS011;48953;53.110;5.592;2023-07-28T07:43:52;9.10;;;7.40;;
62861;SDS011;48953;53.110;5.592;2023-07-28T07:46:18;7.75;;;6.95;;
62861;SDS011;48953;53.110;5.592;2023-07-28T07:48:44;7.35;;;6.47;;
62861;SDS011;48953;53.110;5.592;2023-07-28T07:51:11;6.38;;;5.63;;
62861;SDS011;48953;53.110;5.592;2023-07-28T07:53:37;6.10;;;5.50;;
62861;SDS011;48953;53.110;5.592;2023-07-28T07:56:03;5.15;;;4.65;;
62861;SDS011;48953;53.110;5.592;2023-07-28T07:58:30;6.00;;;5.15;;
62861;SDS011;48953;53.110;5.592;2023-07-28T08:00:56;5.75;;;5.15;;
62861;SDS011;48953;53.110;5.592;2023-07-28T08:03:22;5.00;;;4.50;;
62861;SDS011;48953;53.110;5.592;2023-07-28T08:05:49;5.57;;;4.57;;
62861;SDS011;48953;53.110;5.592;2023-07-28T08:08:15;4.55;;;3.60;;
62861;SDS011;48953;53.110;5.592;2023-07-28T08:10:42;4.72;;;3.65;;
62861;SDS011;48953;53.110;5.592;2023-07-28T08:13:08;4.15;;;3.60;;
62861;SDS011;48953;53.110;5.592;2023-07-28T08:15:34;3.90;;;3.50;;
62861;SDS011;48953;53.110;5.592;2023-07-28T08:18:00;4.47;;;3.70;;
62861;SDS011;48953;53.110;5.592;2023-07-28T08:20:26;3.97;;;3.20;;
62861;SDS011;48953;53.110;5.592;2023-07-28T08:22:52;3.15;;;2.85;;
62861;SDS011;48953;53.110;5.592;2023-07-28T08:25:18;3.17;;;2.75;;
62861;SDS011;48953;53.110;5.592;2023-07-28T08:27:44;3.40;;;2.78;;
62861;SDS011;48953;53.110;5.592;2023-07-28T08:30:10;3.90;;;2.75;;
62861;SDS011;48953;53.110;5.592;2023-07-28T08:32:36;3.30;;;3.00;;
62861;SDS011;48953;53.110;5.592;2023-07-28T08:35:03;4.88;;;3.50;;
62861;SDS011;48953;53.110;5.592;2023-07-28T08:37:29;3.15;;;2.83;;
62861;SDS011;48953;53.110;5.592;2023-07-28T08:39:56;2.50;;;2.40;;
62861;SDS011;48953;53.110;5.592;2023-07-28T08:42:22;2.28;;;2.08;;
62861;SDS011;48953;53.110;5.592;2023-07-28T08:44:48;2.25;;;2.10;;
62861;SDS011;48953;53.110;5.592;2023-07-28T08:47:17;3.42;;;2.40;;
62861;SDS011;48953;53.110;5.592;2023-07-28T08:49:43;3.03;;;2.38;;
62861;SDS011;48953;53.110;5.592;2023-07-28T08:52:09;3.55;;;2.50;;
62861;SDS011;48953;53.110;5.592;2023-07-28T08:54:37;2.65;;;1.90;;
62861;SDS011;48953;53.110;5.592;2023-07-28T08:57:05;3.65;;;1.77;;
62861;SDS011;48953;53.110;5.592;2023-07-28T08:59:31;2.15;;;1.92;;
62861;SDS011;48953;53.110;5.592;2023-07-28T09:01:57;2.95;;;2.15;;
62861;SDS011;48953;53.110;5.592;2023-07-28T09:04:24;2.58;;;2.13;;
62861;SDS011;48953;53.110;5.592;2023-07-28T09:06:51;2.42;;;2.20;;
62861;SDS011;48953;53.110;5.592;2023-07-28T09:09:18;2.90;;;2.42;;
62861;SDS011;48953;53.110;5.592;2023-07-28T09:11:45;3.28;;;2.88;;
62861;SDS011;48953;53.110;5.592;2023-07-28T09:14:12;3.05;;;2.60;;
62861;SDS011;48953;53.110;5.592;2023-07-28T09:16:38;3.08;;;2.80;;
62861;SDS011;48953;53.110;5.592;2023-07-28T09:19:05;3.67;;;3.03;;
62861;SDS011;48953;53.110;5.592;2023-07-28T09:21:32;3.38;;;2.90;;
62861;SDS011;48953;53.110;5.592;2023-07-28T09:24:03;4.88;;;3.20;;
62861;SDS011;48953;53.110;5.592;2023-07-28T09:26:37;3.97;;;2.72;;
62861;SDS011;48953;53.110;5.592;2023-07-28T09:29:19;3.45;;;2.97;;
62861;SDS011;48953;53.110;5.592;2023-07-28T09:31:46;4.03;;;2.78;;
62861;SDS011;48953;53.110;5.592;2023-07-28T09:34:12;3.17;;;2.80;;
62861;SDS011;48953;53.110;5.592;2023-07-28T09:36:38;4.43;;;2.70;;
62861;SDS011;48953;53.110;5.592;2023-07-28T09:39:05;6.28;;;3.00;;
62861;SDS011;48953;53.110;5.592;2023-07-28T09:41:35;2.70;;;2.50;;
62861;SDS011;48953;53.110;5.592;2023-07-28T09:44:05;2.80;;;2.58;;
62861;SDS011;48953;53.110;5.592;2023-07-28T09:46:34;2.63;;;2.42;;
62861;SDS011;48953;53.110;5.592;2023-07-28T09:49:07;3.17;;;2.22;;
62861;SDS011;48953;53.110;5.592;2023-07-28T09:51:35;3.20;;;2.15;;
62861;SDS011;48953;53.110;5.592;2023-07-28T09:54:05;3.22;;;2.35;;
62861;SDS011;48953;53.110;5.592;2023-07-28T09:56:31;3.65;;;2.10;;
62861;SDS011;48953;53.110;5.592;2023-07-28T09:58:58;2.65;;;2.00;;
62861;SDS011;48953;53.110;5.592;2023-07-28T10:01:24;3.95;;;2.20;;
62861;SDS011;48953;53.110;5.592;2023-07-28T10:03:51;2.13;;;1.92;;
62861;SDS011;48953;53.110;5.592;2023-07-28T10:06:17;2.30;;;2.10;;
62861;SDS011;48953;53.110;5.592;2023-07-28T10:08:44;3.20;;;2.13;;
62861;SDS011;48953;53.110;5.592;2023-07-28T10:11:14;2.67;;;2.20;;
62861;SDS011;48953;53.110;5.592;2023-07-28T10:13:44;1.92;;;1.75;;
62861;SDS011;48953;53.110;5.592;2023-07-28T10:16:11;3.08;;;2.33;;
62861;SDS011;48953;53.110;5.592;2023-07-28T10:18:39;4.23;;;2.17;;
62861;SDS011;48953;53.110;5.592;2023-07-28T10:21:07;2.17;;;1.98;;
62861;SDS011;48953;53.110;5.592;2023-07-28T10:23:33;2.92;;;1.88;;
62861;SDS011;48953;53.110;5.592;2023-07-28T10:26:01;3.47;;;1.80;;
62861;SDS011;48953;53.110;5.592;2023-07-28T10:28:34;2.67;;;2.10;;
62861;SDS011;48953;53.110;5.592;2023-07-28T10:31:04;3.72;;;2.20;;
62861;SDS011;48953;53.110;5.592;2023-07-28T10:35:57;2.00;;;1.90;;
62861;SDS011;48953;53.110;5.592;2023-07-28T10:43:32;3.10;;;1.88;;
62861;SDS011;48953;53.110;5.592;2023-07-28T10:45:58;2.35;;;2.15;;
62861;SDS011;48953;53.110;5.592;2023-07-28T10:48:25;2.08;;;1.90;;
62861;SDS011;48953;53.110;5.592;2023-07-28T10:50:51;7.40;;;2.30;;
62861;SDS011;48953;53.110;5.592;2023-07-28T10:53:17;2.22;;;1.80;;
62861;SDS011;48953;53.110;5.592;2023-07-28T10:55:43;1.70;;;1.60;;
62861;SDS011;48953;53.110;5.592;2023-07-28T10:58:09;2.67;;;1.80;;
62861;SDS011;48953;53.110;5.592;2023-07-28T11:00:35;3.47;;;1.63;;
62861;SDS011;48953;53.110;5.592;2023-07-28T11:03:08;1.98;;;1.77;;
62861;SDS011;48953;53.110;5.592;2023-07-28T11:05:35;2.28;;;1.50;;
62861;SDS011;48953;53.110;5.592;2023-07-28T11:08:02;2.35;;;1.67;;
62861;SDS011;48953;53.110;5.592;2023-07-28T11:10:29;1.58;;;1.30;;
62861;SDS011;48953;53.110;5.592;2023-07-28T11:12:57;2.75;;;1.52;;
62861;SDS011;48953;53.110;5.592;2023-07-28T11:15:24;3.15;;;2.38;;
62861;SDS011;48953;53.110;5.592;2023-07-28T11:17:51;1.98;;;1.75;;
62861;SDS011;48953;53.110;5.592;2023-07-28T11:20:17;2.13;;;1.90;;
62861;SDS011;48953;53.110;5.592;2023-07-28T11:22:44;3.28;;;2.40;;
62861;SDS011;48953;53.110;5.592;2023-07-28T11:25:11;2.10;;;1.77;;
62861;SDS011;48953;53.110;5.592;2023-07-28T11:27:38;4.03;;;2.88;;
62861;SDS011;48953;53.110;5.592;2023-07-28T11:30:06;4.18;;;2.25;;
62861;SDS011;48953;53.110;5.592;2023-07-28T11:32:34;2.45;;;2.00;;
62861;SDS011;48953;53.110;5.592;2023-07-28T11:35:07;3.13;;;2.67;;
62861;SDS011;48953;53.110;5.592;2023-07-28T11:37:34;2.85;;;2.55;;
62861;SDS011;48953;53.110;5.592;2023-07-28T11:40:01;4.43;;;3.10;;
62861;SDS011;48953;53.110;5.592;2023-07-28T11:42:28;2.95;;;2.50;;
62861;SDS011;48953;53.110;5.592;2023-07-28T11:44:55;4.20;;;2.40;;
62861;SDS011;48953;53.110;5.592;2023-07-28T11:47:21;3.00;;;2.40;;
62861;SDS011;48953;53.110;5.592;2023-07-28T11:49:47;2.67;;;2.20;;
62861;SDS011;48953;53.110;5.592;2023-07-28T11:52:14;3.40;;;2.50;;
62861;SDS011;48953;53.110;5.592;2023-07-28T11:57:09;4.40;;;3.38;;
62861;SDS011;48953;53.110;5.592;2023-07-28T11:59:35;2.90;;;2.55;;
62861;SDS011;48953;53.110;5.592;2023-07-28T12:02:02;4.30;;;3.20;;
62861;SDS011;48953;53.110;5.592;2023-07-28T12:04:35;3.63;;;2.45;;
62861;SDS011;48953;53.110;5.592;2023-07-28T12:12:11;4.47;;;3.28;;
62861;SDS011;48953;53.110;5.592;2023-07-28T12:14:37;3.08;;;2.78;;
62861;SDS011;48953;53.110;5.592;2023-07-28T12:17:11;5.00;;;3.13;;
62861;SDS011;48953;53.110;5.592;2023-07-28T12:22:22;3.47;;;2.80;;
62861;SDS011;48953;53.110;5.592;2023-07-28T12:24:56;3.88;;;3.13;;
62861;SDS011;48953;53.110;5.592;2023-07-28T12:27:22;3.92;;;3.15;;
62861;SDS011;48953;53.110;5.592;2023-07-28T12:29:52;3.67;;;3.38;;
62861;SDS011;48953;53.110;5.592;2023-07-28T12:32:18;4.45;;;3.00;;
62861;SDS011;48953;53.110;5.592;2023-07-28T12:34:44;3.75;;;3.45;;
62861;SDS011;48953;53.110;5.592;2023-07-28T12:37:10;4.03;;;3.25;;
62861;SDS011;48953;53.110;5.592;2023-07-28T12:39:37;6.05;;;4.07;;
62861;SDS011;48953;53.110;5.592;2023-07-28T12:42:06;5.82;;;3.78;;
62861;SDS011;48953;53.110;5.592;2023-07-28T12:44:33;3.60;;;3.22;;
62861;SDS011;48953;53.110;5.592;2023-07-28T12:46:59;5.20;;;4.57;;
62861;SDS011;48953;53.110;5.592;2023-07-28T12:49:25;5.28;;;4.18;;
62861;SDS011;48953;53.110;5.592;2023-07-28T12:51:53;5.90;;;4.38;;
62861;SDS011;48953;53.110;5.592;2023-07-28T12:54:19;6.95;;;4.70;;
62861;SDS011;48953;53.110;5.592;2023-07-28T12:56:46;5.25;;;4.03;;
62861;SDS011;48953;53.110;5.592;2023-07-28T12:59:13;5.03;;;4.25;;
62861;SDS011;48953;53.110;5.592;2023-07-28T13:01:39;4.15;;;3.50;;
62861;SDS011;48953;53.110;5.592;2023-07-28T13:04:06;3.88;;;3.08;;
62861;SDS011;48953;53.110;5.592;2023-07-28T13:06:32;5.28;;;4.03;;
62861;SDS011;48953;53.110;5.592;2023-07-28T13:08:58;9.15;;;3.95;;
62861;SDS011;48953;53.110;5.592;2023-07-28T13:11:24;5.28;;;3.47;;
62861;SDS011;48953;53.110;5.592;2023-07-28T13:13:50;4.63;;;3.78;;
62861;SDS011;48953;53.110;5.592;2023-07-28T13:16:16;5.25;;;3.75;;
62861;SDS011;48953;53.110;5.592;2023-07-28T13:18:43;5.55;;;3.90;;
62861;SDS011;48953;53.110;5.592;2023-07-28T13:21:10;3.70;;;3.40;;
62861;SDS011;48953;53.110;5.592;2023-07-28T13:23:36;3.95;;;3.65;;
62861;SDS011;48953;53.110;5.592;2023-07-28T13:26:02;4.00;;;3.60;;
62861;SDS011;48953;53.110;5.592;2023-07-28T13:28:31;4.80;;;3.90;;
62861;SDS011;48953;53.110;5.592;2023-07-28T13:30:57;6.68;;;4.65;;
62861;SDS011;48953;53.110;5.592;2023-07-28T13:33:23;6.30;;;4.10;;
62861;SDS011;48953;53.110;5.592;2023-07-28T13:35:57;5.45;;;4.50;;
62861;SDS011;48953;53.110;5.592;2023-07-28T13:38:23;6.68;;;4.85;;
62861;SDS011;48953;53.110;5.592;2023-07-28T13:40:49;4.45;;;4.05;;
62861;SDS011;48953;53.110;5.592;2023-07-28T13:43:15;3.13;;;2.70;;
62861;SDS011;48953;53.110;5.592;2023-07-28T13:45:41;2.72;;;2.53;;
62861;SDS011;48953;53.110;5.592;2023-07-28T13:48:07;3.60;;;3.30;;
62861;SDS011;48953;53.110;5.592;2023-07-28T13:50:33;3.83;;;3.25;;
62861;SDS011;48953;53.110;5.592;2023-07-28T13:52:59;4.75;;;3.60;;
62861;SDS011;48953;53.110;5.592;2023-07-28T13:55:25;4.72;;;3.90;;
62861;SDS011;48953;53.110;5.592;2023-07-28T13:57:51;3.58;;;3.28;;
62861;SDS011;48953;53.110;5.592;2023-07-28T14:00:17;4.55;;;3.47;;
62861;SDS011;48953;53.110;5.592;2023-07-28T14:02:43;4.47;;;3.78;;
62861;SDS011;48953;53.110;5.592;2023-07-28T14:05:09;4.95;;;3.40;;
62861;SDS011;48953;53.110;5.592;2023-07-28T14:07:35;5.20;;;4.10;;
62861;SDS011;48953;53.110;5.592;2023-07-28T14:10:01;3.95;;;3.55;;
62861;SDS011;48953;53.110;5.592;2023-07-28T14:12:28;5.00;;;4.55;;
62861;SDS011;48953;53.110;5.592;2023-07-28T14:14:54;4.95;;;3.92;;
62861;SDS011;48953;53.110;5.592;2023-07-28T14:17:23;4.03;;;3.55;;
62861;SDS011;48953;53.110;5.592;2023-07-28T14:19:49;5.55;;;4.53;;
62861;SDS011;48953;53.110;5.592;2023-07-28T14:22:15;5.88;;;4.50;;
62861;SDS011;48953;53.110;5.592;2023-07-28T14:24:41;6.10;;;3.67;;
62861;SDS011;48953;53.110;5.592;2023-07-28T14:27:07;5.80;;;4.30;;
62861;SDS011;48953;53.110;5.592;2023-07-28T14:29:33;6.45;;;3.97;;
62861;SDS011;48953;53.110;5.592;2023-07-28T14:31:59;8.48;;;5.65;;
62861;SDS011;48953;53.110;5.592;2023-07-28T14:34:25;8.55;;;5.03;;
62861;SDS011;48953;53.110;5.592;2023-07-28T14:36:51;8.27;;;5.95;;
62861;SDS011;48953;53.110;5.592;2023-07-28T14:39:17;9.93;;;7.07;;
62861;SDS011;48953;53.110;5.592;2023-07-28T14:41:43;7.57;;;6.03;;
62861;SDS011;48953;53.110;5.592;2023-07-28T14:44:09;9.68;;;6.90;;
62861;SDS011;48953;53.110;5.592;2023-07-28T14:46:35;10.40;;;7.55;;
62861;SDS011;48953;53.110;5.592;2023-07-28T14:49:01;10.68;;;7.95;;
62861;SDS011;48953;53.110;5.592;2023-07-28T14:51:27;9.32;;;7.80;;
62861;SDS011;48953;53.110;5.592;2023-07-28T14:53:53;12.18;;;7.85;;
62861;SDS011;48953;53.110;5.592;2023-07-28T14:56:20;11.43;;;8.93;;
62861;SDS011;48953;53.110;5.592;2023-07-28T15:01:27;12.73;;;9.07;;
62861;SDS011;48953;53.110;5.592;2023-07-28T15:03:53;10.68;;;8.98;;